createdAt,value
2022-09-06T00:01:35.026Z,20.63
2022-09-06T00:03:40.607Z,20.63
2022-09-06T00:05:44.652Z,21.20
2022-09-06T00:07:47.980Z,21.87
2022-09-06T00:09:51.353Z,20.60
2022-09-06T00:11:54.822Z,22.67
2022-09-06T00:13:58.212Z,22.83
2022-09-06T00:16:09.979Z,20.87
2022-09-06T00:18:13.568Z,21.37
2022-09-06T00:20:18.498Z,24.60
2022-09-06T00:22:21.995Z,22.70
2022-09-06T00:24:25.359Z,23.43
2022-09-06T00:26:29.068Z,25.37
2022-09-06T00:28:32.811Z,23.43
2022-09-06T00:30:36.134Z,24.20
2022-09-06T00:32:39.442Z,21.33
2022-09-06T00:34:42.814Z,24.17
2022-09-06T00:36:47.613Z,21.83
2022-09-06T00:38:51.238Z,21.70
2022-09-06T00:40:54.531Z,22.07
2022-09-06T00:42:58.350Z,22.37
2022-09-06T00:45:02.033Z,22.47
2022-09-06T00:47:05.909Z,24.80
2022-09-06T00:49:15.851Z,22.53
2022-09-06T00:51:22.109Z,24.47
2022-09-06T00:53:28.212Z,22.93
2022-09-06T00:55:31.609Z,21.87
2022-09-06T00:57:35.207Z,24.53
2022-09-06T00:59:41.665Z,21.47
2022-09-06T01:01:45.335Z,19.40
2022-09-06T01:03:49.196Z,23.97
2022-09-06T01:06:02.025Z,25.57
2022-09-06T01:08:14.744Z,25.30
2022-09-06T01:10:38.793Z,22.67
2022-09-06T01:12:51.237Z,22.13
2022-09-06T01:15:09.774Z,20.97
2022-09-06T01:17:23.787Z,24.33
2022-09-06T01:19:52.514Z,21.67
2022-09-06T01:22:05.023Z,24.43
2022-09-06T01:24:41.407Z,22.60
2022-09-06T01:27:33.970Z,22.23
2022-09-06T01:29:46.348Z,20.47
2022-09-06T01:31:53.784Z,23.00
2022-09-06T01:34:19.034Z,27.93
2022-09-06T01:36:27.384Z,25.13
2022-09-06T01:38:31.142Z,21.07
2022-09-06T01:40:36.619Z,21.50
2022-09-06T01:42:42.531Z,19.73
2022-09-06T01:44:50.414Z,18.90
2022-09-06T01:47:01.380Z,19.73
2022-09-06T01:49:20.340Z,20.30
2022-09-06T01:51:32.639Z,20.50
2022-09-06T01:53:59.381Z,19.90
2022-09-06T01:56:11.413Z,20.30
2022-09-06T01:58:33.216Z,19.90
2022-09-06T02:00:44.743Z,20.47
2022-09-06T02:03:01.302Z,20.67
2022-09-06T02:05:10.305Z,20.43
2022-09-06T02:07:21.440Z,19.30
2022-09-06T02:09:28.864Z,21.90
2022-09-06T02:11:39.053Z,20.93
2022-09-06T02:13:50.637Z,22.03
2022-09-06T02:16:01.305Z,22.30
2022-09-06T02:18:09.309Z,20.93
2022-09-06T02:20:17.181Z,19.60
2022-09-06T02:22:23.915Z,23.37
2022-09-06T02:24:32.530Z,22.17
2022-09-06T02:26:39.156Z,22.03
2022-09-06T02:28:42.741Z,24.40
2022-09-06T02:30:51.283Z,23.57
2022-09-06T02:33:00.511Z,23.80
2022-09-06T02:35:10.095Z,21.77
2022-09-06T02:37:14.852Z,32.50
2022-09-06T02:39:18.265Z,21.40
2022-09-06T02:41:24.223Z,23.30
2022-09-06T02:43:27.839Z,32.83
2022-09-06T02:45:33.506Z,25.30
2022-09-06T02:47:36.984Z,125.67
2022-09-06T02:49:41.651Z,22.40
2022-09-06T02:51:44.966Z,21.80
2022-09-06T02:53:48.654Z,25.03
2022-09-06T02:55:52.009Z,42.37
2022-09-06T02:57:55.535Z,20.27
2022-09-06T02:59:59.199Z,22.40
2022-09-06T03:02:02.779Z,22.83
2022-09-06T03:04:06.168Z,28.33
2022-09-06T03:06:11.199Z,27.20
2022-09-06T03:08:14.445Z,22.33
2022-09-06T03:10:18.246Z,21.17
2022-09-06T03:12:21.684Z,23.97
2022-09-06T03:14:25.140Z,20.97
2022-09-06T03:16:28.685Z,22.43
2022-09-06T03:18:32.925Z,20.53
2022-09-06T03:20:37.258Z,21.23
2022-09-06T03:22:42.761Z,21.90
2022-09-06T03:24:46.099Z,19.70
2022-09-06T03:26:49.529Z,22.17
2022-09-06T03:28:53.118Z,21.63
2022-09-06T03:30:56.443Z,21.50
2022-09-06T03:33:02.815Z,21.27
2022-09-06T03:35:08.074Z,22.40
2022-09-06T03:37:11.812Z,23.03
2022-09-06T03:39:16.860Z,21.03
2022-09-06T03:41:20.402Z,80.50
2022-09-06T03:43:28.175Z,29.83
2022-09-06T03:45:31.728Z,26.80
2022-09-06T03:47:35.245Z,59.80
2022-09-06T03:49:38.672Z,38.93
2022-09-06T03:51:42.084Z,22.00
2022-09-06T03:53:45.426Z,22.73
2022-09-06T03:55:51.656Z,21.87
2022-09-06T03:57:55.027Z,22.33
2022-09-06T03:59:58.305Z,30.77
2022-09-06T04:02:01.930Z,21.77
2022-09-06T04:04:05.279Z,23.83
2022-09-06T04:06:09.299Z,22.30
2022-09-06T04:08:13.297Z,23.43
2022-09-06T04:10:16.762Z,20.87
2022-09-06T04:12:21.559Z,19.27
2022-09-06T04:14:24.908Z,23.13
2022-09-06T04:16:29.278Z,26.73
2022-09-06T04:18:32.966Z,41.20
2022-09-06T04:20:36.338Z,35.63
2022-09-06T04:22:39.729Z,39.00
2022-09-06T04:24:43.448Z,46.20
2022-09-06T04:26:46.862Z,19.57
2022-09-06T04:28:51.719Z,44.23
2022-09-06T04:30:56.125Z,38.20
2022-09-06T04:32:59.626Z,28.67
2022-09-06T04:35:03.175Z,38.70
2022-09-06T04:37:06.736Z,50.57
2022-09-06T04:39:10.212Z,21.00
2022-09-06T04:41:16.425Z,28.03
2022-09-06T04:43:20.166Z,31.17
2022-09-06T04:45:25.058Z,25.83
2022-09-06T04:47:28.576Z,29.57
2022-09-06T04:49:32.021Z,30.30
2022-09-06T04:51:35.464Z,30.37
2022-09-06T04:53:38.885Z,20.00
2022-09-06T04:55:42.421Z,18.57
2022-09-06T04:57:49.538Z,19.87
2022-09-06T04:59:54.672Z,19.87
2022-09-06T05:01:59.533Z,19.93
2022-09-06T05:04:03.631Z,20.80
2022-09-06T05:06:08.904Z,19.00
2022-09-06T05:08:12.533Z,23.63
2022-09-06T05:10:15.947Z,19.20
2022-09-06T05:12:19.431Z,17.90
2022-09-06T05:14:23.066Z,18.90
2022-09-06T05:16:26.561Z,17.63
2022-09-06T05:18:31.543Z,19.10
2022-09-06T05:20:35.030Z,19.60
2022-09-06T05:22:38.448Z,18.03
2022-09-06T05:24:41.842Z,23.20
2022-09-06T05:26:45.178Z,18.03
2022-09-06T05:28:48.640Z,18.70
2022-09-06T05:30:52.023Z,16.73
2022-09-06T05:32:55.494Z,17.90
2022-09-06T05:35:00.534Z,17.93
2022-09-06T05:37:03.948Z,18.60
2022-09-06T05:39:07.390Z,18.30
2022-09-06T05:41:10.855Z,18.23
2022-09-06T05:43:14.306Z,17.23
2022-09-06T05:45:18.102Z,16.30
2022-09-06T05:47:21.696Z,17.07
2022-09-06T05:49:25.298Z,15.33
2022-09-06T05:51:31.447Z,15.13
2022-09-06T05:53:38.735Z,14.13
2022-09-06T05:55:43.106Z,13.00
2022-09-06T05:57:46.552Z,15.30
2022-09-06T05:59:49.977Z,12.43
2022-09-06T06:01:54.952Z,11.90
2022-09-06T06:04:00.590Z,13.30
2022-09-06T06:06:04.010Z,11.37
2022-09-06T06:08:08.725Z,13.03
2022-09-06T06:10:12.431Z,12.27
2022-09-06T06:12:15.698Z,12.33
2022-09-06T06:14:19.213Z,12.17
2022-09-06T06:16:25.232Z,11.30
2022-09-06T06:18:28.741Z,12.40
2022-09-06T06:20:32.294Z,13.13
2022-09-06T06:22:35.966Z,14.30
2022-09-06T06:24:40.983Z,12.53
2022-09-06T06:26:44.336Z,13.67
2022-09-06T06:28:48.882Z,12.20
2022-09-06T06:30:52.470Z,12.17
2022-09-06T06:32:55.855Z,12.77
2022-09-06T06:34:59.200Z,12.40
2022-09-06T06:37:02.745Z,12.83
2022-09-06T06:39:08.519Z,11.30
2022-09-06T06:41:14.674Z,11.07
2022-09-06T06:43:18.542Z,13.60
2022-09-06T06:45:22.243Z,13.77
2022-09-06T06:47:25.549Z,10.83
2022-09-06T06:49:28.718Z,10.90
2022-09-06T06:51:33.585Z,11.47
2022-09-06T06:53:37.075Z,9.37
2022-09-06T06:55:40.773Z,11.10
2022-09-06T06:57:45.506Z,10.40
2022-09-06T06:59:48.791Z,10.10
2022-09-06T07:01:52.519Z,9.80
2022-09-06T07:03:55.868Z,12.50
2022-09-06T07:06:14.616Z,9.60
2022-09-06T07:08:18.032Z,8.33
2022-09-06T07:10:37.020Z,9.10
2022-09-06T07:12:40.519Z,8.23
2022-09-06T07:14:45.506Z,8.27
2022-09-06T07:16:49.415Z,17.23
2022-09-06T07:18:53.650Z,8.73
2022-09-06T07:25:48.137Z,8.23
2022-09-06T07:27:59.048Z,8.70
2022-09-06T07:30:04.571Z,8.63
2022-09-06T07:34:17.786Z,7.40
2022-09-06T07:36:21.151Z,8.00
2022-09-06T07:38:24.662Z,8.03
2022-09-06T07:40:29.155Z,8.90
2022-09-06T07:42:36.611Z,7.40
2022-09-06T07:44:40.036Z,7.10
2022-09-06T07:46:44.832Z,8.20
2022-09-06T07:48:49.713Z,9.70
2022-09-06T07:50:55.897Z,6.97
2022-09-06T07:55:14.570Z,6.07
2022-09-06T07:57:18.964Z,6.10
2022-09-06T07:59:22.596Z,7.00
2022-09-06T08:01:30.411Z,6.17
2022-09-06T08:03:35.230Z,7.03
2022-09-06T08:10:26.013Z,5.63
2022-09-06T08:12:30.962Z,6.27
2022-09-06T08:14:34.518Z,5.97
2022-09-06T08:16:39.505Z,5.20
2022-09-06T08:18:44.707Z,6.70
2022-09-06T08:20:48.023Z,6.63
2022-09-06T08:22:51.378Z,5.93
2022-09-06T08:24:54.747Z,6.10
2022-09-06T08:26:58.247Z,6.87
2022-09-06T08:29:03.080Z,6.77
2022-09-06T08:31:11.922Z,7.40
2022-09-06T08:33:15.815Z,7.13
2022-09-06T08:35:20.901Z,7.13
2022-09-06T08:37:25.214Z,7.03
2022-09-06T08:39:28.774Z,6.37
2022-09-06T08:41:35.433Z,7.37
2022-09-06T08:43:40.203Z,6.47
2022-09-06T08:45:43.594Z,6.70
2022-09-06T08:47:47.171Z,5.20
2022-09-06T08:49:54.819Z,7.47
2022-09-06T08:52:24.940Z,6.63
2022-09-06T08:54:34.408Z,8.83
2022-09-06T08:56:49.123Z,7.43
2022-09-06T08:59:04.805Z,6.90
2022-09-06T09:01:13.081Z,6.27
2022-09-06T09:03:19.983Z,7.13
2022-09-06T09:05:25.935Z,6.27
2022-09-06T09:07:41.479Z,6.17
2022-09-06T09:09:44.733Z,5.90
2022-09-06T09:11:52.366Z,8.03
2022-09-06T09:13:56.878Z,6.10
2022-09-06T09:16:00.666Z,4.83
2022-09-06T09:18:05.132Z,7.20
2022-09-06T09:20:10.345Z,5.77
2022-09-06T09:22:15.810Z,6.17
2022-09-06T09:24:20.456Z,5.97
2022-09-06T09:26:28.031Z,6.63
2022-09-06T09:28:31.289Z,6.50
2022-09-06T09:30:49.362Z,6.27
2022-09-06T09:32:53.377Z,5.90
2022-09-06T09:34:56.848Z,6.63
2022-09-06T09:39:40.454Z,5.60
2022-09-06T09:41:44.448Z,7.40
2022-09-06T09:44:01.179Z,6.40
2022-09-06T09:46:29.819Z,6.10
2022-09-06T09:48:33.495Z,6.10
2022-09-06T09:50:36.886Z,6.63
2022-09-06T09:52:45.443Z,6.30
2022-09-06T09:54:54.054Z,5.70
2022-09-06T09:56:58.633Z,5.87
2022-09-06T09:59:03.692Z,5.13
2022-09-06T10:01:19.130Z,5.40
2022-09-06T10:03:31.228Z,5.43
2022-09-06T10:05:34.674Z,5.30
2022-09-06T10:07:44.467Z,5.77
2022-09-06T10:09:50.651Z,6.20
2022-09-06T10:11:56.275Z,5.67
2022-09-06T10:14:11.777Z,5.13
2022-09-06T10:16:15.459Z,5.50
2022-09-06T10:18:20.194Z,5.10
2022-09-06T10:20:28.918Z,4.83
2022-09-06T10:22:36.813Z,4.40
2022-09-06T10:24:52.727Z,5.30
2022-09-06T10:27:00.362Z,4.53
2022-09-06T10:29:06.219Z,5.60
2022-09-06T10:31:38.002Z,5.33
2022-09-06T10:33:53.549Z,7.27
2022-09-06T10:35:59.792Z,4.90
2022-09-06T10:38:18.679Z,6.10
2022-09-06T10:40:29.436Z,5.07
2022-09-06T10:42:42.568Z,5.90
2022-09-06T10:45:01.475Z,5.43
2022-09-06T10:47:11.970Z,6.23
2022-09-06T10:49:20.043Z,5.20
2022-09-06T10:51:33.745Z,6.90
2022-09-06T10:53:44.850Z,5.13
2022-09-06T10:56:01.565Z,4.93
2022-09-06T10:58:21.812Z,5.10
2022-09-06T11:00:25.283Z,5.63
2022-09-06T11:02:41.068Z,4.73
2022-09-06T11:07:20.090Z,6.63
2022-09-06T11:09:31.710Z,3.90
2022-09-06T11:11:49.678Z,4.93
2022-09-06T11:13:54.345Z,5.27
2022-09-06T11:16:04.573Z,4.57
2022-09-06T11:18:15.306Z,5.00
2022-09-06T11:20:28.522Z,4.80
2022-09-06T11:22:50.982Z,4.77
2022-09-06T11:25:28.429Z,6.63
2022-09-06T11:27:39.111Z,4.17
2022-09-06T11:29:47.083Z,4.70
2022-09-06T11:34:23.897Z,5.10
2022-09-06T11:36:35.918Z,4.17
2022-09-06T11:38:39.337Z,3.83
2022-09-06T11:40:45.774Z,7.47
2022-09-06T11:43:15.865Z,3.50
2022-09-06T11:45:22.953Z,3.93
2022-09-06T11:47:40.170Z,4.47
2022-09-06T11:49:43.476Z,4.27
2022-09-06T11:51:47.701Z,4.30
2022-09-06T11:54:23.954Z,5.20
2022-09-06T11:56:31.919Z,4.87
2022-09-06T11:58:48.134Z,6.43
2022-09-06T12:01:20.998Z,4.17
2022-09-06T12:04:05.208Z,4.30
2022-09-06T12:06:19.210Z,4.93
2022-09-06T12:08:34.460Z,4.90
2022-09-06T12:10:57.321Z,4.77
2022-09-06T12:13:01.087Z,4.23
2022-09-06T12:15:27.544Z,5.77
2022-09-06T12:17:48.136Z,4.47
2022-09-06T12:19:53.119Z,4.90
2022-09-06T12:21:57.698Z,5.43
2022-09-06T12:24:01.894Z,5.40
2022-09-06T12:26:06.205Z,6.30
2022-09-06T12:28:21.290Z,6.20
2022-09-06T12:30:37.573Z,5.43
2022-09-06T12:32:43.879Z,5.50
2022-09-06T12:34:47.937Z,6.00
2022-09-06T12:37:07.228Z,5.03
2022-09-06T12:39:12.118Z,5.70
2022-09-06T12:41:15.599Z,5.93
2022-09-06T12:43:20.174Z,6.20
2022-09-06T12:45:27.368Z,6.20
2022-09-06T12:47:35.013Z,6.07
2022-09-06T12:49:38.595Z,6.83
2022-09-06T12:51:43.730Z,6.87
2022-09-06T12:53:53.265Z,5.70
2022-09-06T12:56:05.468Z,5.90
2022-09-06T12:58:10.695Z,6.53
2022-09-06T13:00:14.990Z,6.03
2022-09-06T13:02:24.851Z,6.50
2022-09-06T13:04:35.081Z,6.30
2022-09-06T13:06:43.039Z,5.80
2022-09-06T13:08:49.776Z,7.27
2022-09-06T13:10:55.574Z,7.27
2022-09-06T13:13:02.029Z,7.80
2022-09-06T13:15:11.772Z,8.10
2022-09-06T13:17:25.791Z,7.83
2022-09-06T13:19:35.518Z,8.93
2022-09-06T13:21:42.222Z,7.53
2022-09-06T13:23:47.747Z,7.10
2022-09-06T13:25:57.382Z,6.60
2022-09-06T13:28:02.546Z,7.50
2022-09-06T13:30:09.283Z,8.20
2022-09-06T13:32:16.904Z,8.10
2022-09-06T13:34:24.831Z,7.50
2022-09-06T13:36:31.047Z,7.57
2022-09-06T13:38:39.854Z,8.50
2022-09-06T13:41:09.625Z,8.20
2022-09-06T13:43:13.461Z,8.80
2022-09-06T13:45:26.377Z,7.77
2022-09-06T13:47:29.930Z,7.77
2022-09-06T13:49:34.073Z,8.40
2022-09-06T13:51:39.894Z,9.73
2022-09-06T13:53:43.468Z,7.70
2022-09-06T13:55:46.838Z,7.90
2022-09-06T13:57:50.446Z,8.00
2022-09-06T13:59:55.271Z,10.57
2022-09-06T14:02:03.241Z,7.90
2022-09-06T14:04:07.368Z,8.33
2022-09-06T14:06:11.390Z,8.13
2022-09-06T14:08:16.087Z,9.03
2022-09-06T14:10:21.878Z,7.10
2022-09-06T14:12:34.861Z,7.10
2022-09-06T14:14:38.582Z,8.67
2022-09-06T14:16:43.386Z,8.47
2022-09-06T14:18:46.868Z,9.53
2022-09-06T14:20:53.869Z,8.53
2022-09-06T14:22:57.334Z,8.30
2022-09-06T14:25:00.736Z,9.77
2022-09-06T14:27:05.252Z,10.03
2022-09-06T14:29:08.567Z,9.27
2022-09-06T14:31:12.931Z,10.90
2022-09-06T14:33:17.625Z,8.70
2022-09-06T14:35:21.110Z,9.13
2022-09-06T14:37:24.463Z,9.17
2022-09-06T14:39:27.824Z,13.20
2022-09-06T14:41:31.473Z,10.33
2022-09-06T14:43:35.606Z,9.50
2022-09-06T14:45:39.262Z,8.97
2022-09-06T14:47:42.888Z,8.63
2022-09-06T14:49:47.527Z,10.10
2022-09-06T14:51:52.858Z,9.27
2022-09-06T14:53:58.568Z,7.80
2022-09-06T14:56:04.153Z,8.10
2022-09-06T14:58:07.538Z,8.03
2022-09-06T15:00:12.144Z,9.67
2022-09-06T15:02:15.565Z,6.90
2022-09-06T15:04:19.222Z,6.10
2022-09-06T15:06:25.375Z,7.63
2022-09-06T15:08:28.667Z,9.53
2022-09-06T15:10:32.194Z,9.13
2022-09-06T15:12:35.601Z,8.33
2022-09-06T15:14:41.119Z,7.93
2022-09-06T15:16:44.887Z,7.97
2022-09-06T15:18:48.423Z,7.67
2022-09-06T15:20:52.196Z,8.17
2022-09-06T15:23:21.601Z,8.17
2022-09-06T15:25:20.921Z,8.43
2022-09-06T15:27:24.398Z,8.60
2022-09-06T15:29:28.197Z,9.80
2022-09-06T15:31:33.921Z,8.70
2022-09-06T15:33:39.703Z,9.20
2022-09-06T15:35:48.100Z,9.27
2022-09-06T15:37:51.429Z,9.97
2022-09-06T15:39:56.313Z,11.03
2022-09-06T15:42:00.123Z,8.00
2022-09-06T15:44:08.282Z,7.67
2022-09-06T15:46:11.881Z,8.23
2022-09-06T15:48:17.055Z,8.17
2022-09-06T15:50:40.599Z,8.77
2022-09-06T15:52:44.050Z,9.13
2022-09-06T15:55:10.067Z,8.53
2022-09-06T15:57:16.444Z,12.93
2022-09-06T15:59:19.852Z,8.40
2022-09-06T16:01:25.314Z,8.67
2022-09-06T16:03:29.231Z,10.50
2022-09-06T16:07:59.470Z,9.80
2022-09-06T16:10:06.039Z,14.37
2022-09-06T16:12:09.851Z,10.90
2022-09-06T16:14:16.036Z,10.67
2022-09-06T16:16:19.874Z,11.30
2022-09-06T16:18:24.025Z,10.17
2022-09-06T16:20:28.679Z,14.90
2022-09-06T16:22:35.102Z,10.70
2022-09-06T16:24:38.492Z,10.07
2022-09-06T16:26:43.617Z,9.57
2022-09-06T16:28:47.051Z,11.97
2022-09-06T16:30:52.063Z,10.53
2022-09-06T16:32:55.720Z,10.57
2022-09-06T16:35:00.574Z,13.60
2022-09-06T16:37:07.953Z,11.93
2022-09-06T16:39:11.980Z,11.37
2022-09-06T16:41:19.329Z,10.50
2022-09-06T16:43:22.964Z,12.30
2022-09-06T16:45:26.371Z,9.77
2022-09-06T16:47:32.017Z,10.47
2022-09-06T16:49:38.646Z,8.30
2022-09-06T16:51:42.021Z,7.70
2022-09-06T16:53:47.601Z,8.17
2022-09-06T16:55:51.094Z,7.83
2022-09-06T16:57:55.227Z,7.43
2022-09-06T16:59:58.880Z,7.73
2022-09-06T17:02:02.719Z,6.50
2022-09-06T17:04:07.634Z,8.47
2022-09-06T17:06:11.341Z,6.80
2022-09-06T17:08:14.930Z,8.20
2022-09-06T17:10:18.824Z,8.03
2022-09-06T17:12:22.514Z,7.80
2022-09-06T17:14:26.114Z,7.23
2022-09-06T17:16:46.784Z,9.63
2022-09-06T17:18:50.408Z,7.60
2022-09-06T17:21:00.782Z,8.00
2022-09-06T17:23:04.275Z,8.00
2022-09-06T17:25:08.506Z,9.47
2022-09-06T17:27:12.108Z,9.60
2022-09-06T17:29:16.178Z,9.80
2022-09-06T17:31:25.551Z,9.70
2022-09-06T17:33:30.442Z,8.73
2022-09-06T17:35:34.458Z,8.70
2022-09-06T17:37:39.198Z,9.70
2022-09-06T17:39:43.012Z,10.17
2022-09-06T17:41:48.106Z,10.30
2022-09-06T17:43:52.622Z,9.70
2022-09-06T17:45:56.336Z,10.03
2022-09-06T17:47:59.726Z,10.40
2022-09-06T17:50:04.903Z,9.83
2022-09-06T17:52:08.429Z,10.27
2022-09-06T17:54:14.894Z,9.90
2022-09-06T17:56:19.531Z,10.03
2022-09-06T17:58:23.012Z,9.53
2022-09-06T18:00:27.014Z,11.07
2022-09-06T18:02:30.250Z,9.83
2022-09-06T18:04:33.898Z,19.20
2022-09-06T18:06:40.585Z,24.60
2022-09-06T18:08:45.540Z,23.57
2022-09-06T18:10:50.663Z,27.20
2022-09-06T18:12:54.072Z,16.33
2022-09-06T18:14:57.569Z,26.83
2022-09-06T18:19:26.247Z,13.67
2022-09-06T18:21:31.024Z,11.30
2022-09-06T18:23:34.876Z,10.67
2022-09-06T18:25:38.172Z,18.53
2022-09-06T18:27:43.085Z,21.63
2022-09-06T18:29:46.991Z,19.00
2022-09-06T18:31:53.917Z,13.17
2022-09-06T18:33:58.974Z,8.13
2022-09-06T18:36:02.677Z,10.50
2022-09-06T18:38:06.392Z,13.13
2022-09-06T18:40:11.091Z,9.07
2022-09-06T18:42:15.741Z,12.40
2022-09-06T18:44:20.884Z,12.73
2022-09-06T18:46:24.263Z,9.03
2022-09-06T18:48:28.953Z,14.83
2022-09-06T18:50:32.595Z,11.70
2022-09-06T18:52:35.938Z,9.77
2022-09-06T18:54:39.291Z,18.60
2022-09-06T18:56:44.905Z,12.40
2022-09-06T18:58:48.544Z,12.13
2022-09-06T19:00:53.928Z,11.60
2022-09-06T19:02:57.347Z,9.17
2022-09-06T19:05:00.713Z,9.90
2022-09-06T19:07:04.777Z,14.30
2022-09-06T19:09:10.651Z,8.63
2022-09-06T19:11:16.951Z,10.10
2022-09-06T19:13:20.339Z,15.43
2022-09-06T19:15:24.144Z,10.57
2022-09-06T19:17:28.953Z,16.57
2022-09-06T19:19:32.470Z,12.50
2022-09-06T19:21:41.419Z,9.30
2022-09-06T19:23:47.458Z,9.90
2022-09-06T19:25:57.783Z,14.30
2022-09-06T19:28:01.184Z,12.30
2022-09-06T19:30:07.053Z,9.87
2022-09-06T19:32:10.645Z,10.57
2022-09-06T19:34:16.258Z,9.03
2022-09-06T19:36:20.922Z,8.83
2022-09-06T19:38:24.408Z,14.13
2022-09-06T19:40:27.679Z,11.50
2022-09-06T19:42:31.090Z,15.03
2022-09-06T19:44:38.090Z,14.57
2022-09-06T19:46:45.706Z,9.50
2022-09-06T19:48:51.416Z,12.17
2022-09-06T19:51:00.956Z,11.77
2022-09-06T19:53:07.274Z,9.57
2022-09-06T19:55:11.105Z,9.57
2022-09-06T19:57:14.572Z,10.20
2022-09-06T19:59:18.784Z,11.20
2022-09-06T20:01:22.836Z,11.30
2022-09-06T20:03:26.262Z,9.97
2022-09-06T20:05:29.570Z,10.30
2022-09-06T20:07:34.402Z,10.90
2022-09-06T20:09:38.076Z,12.40
2022-09-06T20:11:42.810Z,14.60
2022-09-06T20:13:46.373Z,11.27
2022-09-06T20:15:49.997Z,10.60
2022-09-06T20:17:54.239Z,11.60
2022-09-06T20:19:57.807Z,19.17
2022-09-06T20:22:01.398Z,11.20
2022-09-06T20:24:06.618Z,12.17
2022-09-06T20:26:11.835Z,11.73
2022-09-06T20:28:15.620Z,11.20
2022-09-06T20:30:19.123Z,12.23
2022-09-06T20:32:23.039Z,9.67
2022-09-06T20:34:26.330Z,10.13
2022-09-06T20:36:30.273Z,9.37
2022-09-06T20:38:35.604Z,8.53
2022-09-06T20:40:40.849Z,7.50
2022-09-06T20:42:46.074Z,7.33
2022-09-06T20:44:49.466Z,8.20
2022-09-06T20:46:53.245Z,9.37
2022-09-06T20:48:59.740Z,9.50
2022-09-06T20:51:06.932Z,9.17
2022-09-06T20:53:10.196Z,10.13
2022-09-06T20:55:13.620Z,8.80
2022-09-06T20:57:18.440Z,8.20
2022-09-06T20:59:22.047Z,7.93
2022-09-06T21:01:26.870Z,7.90
2022-09-06T21:03:30.190Z,8.97
2022-09-06T21:05:33.570Z,8.87
2022-09-06T21:07:36.897Z,9.70
2022-09-06T21:09:40.204Z,9.70
2022-09-06T21:11:45.203Z,8.50
2022-09-06T21:13:52.210Z,9.90
2022-09-06T21:15:56.247Z,9.60
2022-09-06T21:17:59.641Z,10.90
2022-09-06T21:20:03.283Z,9.43
2022-09-06T21:22:06.666Z,9.47
2022-09-06T21:24:11.832Z,9.67
2022-09-06T21:26:16.520Z,12.00
2022-09-06T21:28:19.814Z,9.90
2022-09-06T21:30:24.499Z,13.50
2022-09-06T21:32:27.803Z,9.73
2022-09-06T21:34:31.129Z,12.70
2022-09-06T21:36:36.827Z,10.13
2022-09-06T21:38:42.148Z,10.67
2022-09-06T21:40:45.929Z,10.30
2022-09-06T21:42:49.582Z,12.40
2022-09-06T21:44:53.508Z,10.13
2022-09-06T21:46:59.533Z,10.50
2022-09-06T21:49:05.650Z,9.00
2022-09-06T21:51:09.402Z,9.60
2022-09-06T21:53:12.767Z,9.53
2022-09-06T21:55:16.598Z,8.73
2022-09-06T21:57:20.050Z,9.20
2022-09-06T21:59:23.482Z,9.30
2022-09-06T22:01:28.922Z,8.77
2022-09-06T22:03:36.459Z,9.50
2022-09-06T22:05:39.976Z,9.20
2022-09-06T22:07:43.380Z,9.20
2022-09-06T22:09:46.833Z,11.93
2022-09-06T22:11:50.200Z,10.97
2022-09-06T22:13:54.376Z,9.70
2022-09-06T22:15:57.696Z,9.90
2022-09-06T22:18:01.282Z,8.20
2022-09-06T22:20:08.186Z,10.97
2022-09-06T22:22:11.491Z,9.07
2022-09-06T22:24:17.554Z,8.30
2022-09-06T22:26:21.779Z,7.97
2022-09-06T22:28:28.476Z,8.93
2022-09-06T22:30:32.098Z,8.97
2022-09-06T22:32:35.744Z,10.50
2022-09-06T22:34:39.052Z,9.00
2022-09-06T22:36:44.458Z,8.70
2022-09-06T22:38:48.274Z,8.10
2022-09-06T22:40:51.583Z,8.20
2022-09-06T22:42:54.873Z,7.50
2022-09-06T22:44:58.207Z,8.13
2022-09-06T22:47:01.669Z,10.37
2022-09-06T22:49:05.464Z,8.47
2022-09-06T22:51:09.262Z,10.23
2022-09-06T22:53:14.236Z,8.57
2022-09-06T22:55:17.801Z,13.70
2022-09-06T22:57:21.160Z,9.40
2022-09-06T22:59:24.635Z,9.77
2022-09-06T23:01:28.296Z,8.60
2022-09-06T23:03:31.755Z,8.93
2022-09-06T23:05:35.257Z,10.77
2022-09-06T23:07:38.565Z,8.33
2022-09-06T23:09:43.422Z,6.33
2022-09-06T23:11:47.269Z,6.40
2022-09-06T23:13:50.837Z,6.27
2022-09-06T23:15:56.899Z,5.50
2022-09-06T23:18:00.410Z,6.30
2022-09-06T23:20:05.067Z,8.40
2022-09-06T23:22:08.436Z,8.87
2022-09-06T23:24:12.005Z,11.00
2022-09-06T23:26:18.788Z,9.17
2022-09-06T23:28:22.094Z,13.10
2022-09-06T23:30:25.778Z,13.33
2022-09-06T23:32:29.250Z,9.90
2022-09-06T23:34:32.658Z,8.10
2022-09-06T23:36:36.162Z,7.87
2022-09-06T23:38:40.733Z,8.53
2022-09-06T23:40:44.073Z,8.23
2022-09-06T23:42:49.089Z,8.30
2022-09-06T23:44:54.745Z,9.43
2022-09-06T23:46:58.284Z,7.83
2022-09-06T23:49:01.654Z,8.57
2022-09-06T23:51:08.426Z,11.40
2022-09-06T23:53:12.107Z,56.30
2022-09-06T23:55:15.935Z,70.73
2022-09-06T23:57:19.391Z,94.43
2022-09-06T23:59:25.074Z,34.93
